createdAt,value
2019-06-15T00:00:00.047Z,90.48
2019-06-15T00:01:00.034Z,90.28
2019-06-15T00:02:00.040Z,91.28
2019-06-15T00:03:00.013Z,91.58
2019-06-15T00:03:59.998Z,91.58
2019-06-15T00:04:59.989Z,91.72
2019-06-15T00:05:59.975Z,91.08
2019-06-15T00:07:00.002Z,90.82
2019-06-15T00:07:59.954Z,89.82
2019-06-15T00:08:59.942Z,90.32
2019-06-15T00:09:59.931Z,90.32
2019-06-15T00:10:59.942Z,90.02
2019-06-15T00:11:59.911Z,90.32
2019-06-15T00:12:59.897Z,90.02
2019-06-15T00:13:59.887Z,90.12
2019-06-15T00:14:59.875Z,90.22
2019-06-15T00:15:59.864Z,90.62
2019-06-15T00:16:59.868Z,91.32
2019-06-15T00:17:59.837Z,91.13
2019-06-15T00:18:59.825Z,91.32
2019-06-15T00:19:59.833Z,92.43
2019-06-15T00:20:59.825Z,92.43
2019-06-15T00:21:59.796Z,92.23
2019-06-15T00:22:59.780Z,92.23
2019-06-15T00:23:59.767Z,91.63
2019-06-15T00:24:59.758Z,92.43
2019-06-15T00:25:59.762Z,91.77
2019-06-15T00:26:59.732Z,91.47
2019-06-15T00:27:59.722Z,91.42
2019-06-15T00:28:59.712Z,90.52
2019-06-15T00:29:59.699Z,90.42
2019-06-15T00:30:59.707Z,90.06
2019-06-15T00:31:59.676Z,89.92
2019-06-15T00:32:59.673Z,90.62
2019-06-15T00:33:59.652Z,91.22
2019-06-15T00:40:48.623Z,92.97
2019-06-15T00:41:48.624Z,93.28
2019-06-15T00:42:48.585Z,93.38
2019-06-15T00:43:48.570Z,94.18
2019-06-15T00:44:48.560Z,93.58
2019-06-15T00:45:48.551Z,93.82
2019-06-15T00:46:48.537Z,93.28
2019-06-15T00:47:48.545Z,93.58
2019-06-15T00:48:48.515Z,93.68
2019-06-15T00:49:48.506Z,94.38
2019-06-15T00:50:48.497Z,94.59
2019-06-15T00:51:48.483Z,94.28
2019-06-15T00:52:48.484Z,94.38
2019-06-15T00:53:48.461Z,94.38
2019-06-15T00:54:50.668Z,94.79
2019-06-15T00:55:48.433Z,95.18
2019-06-15T00:56:48.419Z,95.29
2019-06-15T00:57:48.532Z,94.79
2019-06-15T00:58:48.397Z,95.09
2019-06-15T00:59:48.495Z,94.93
2019-06-15T01:00:48.376Z,94.79
2019-06-15T01:01:48.364Z,95.18
2019-06-15T01:02:48.369Z,95.79
2019-06-15T01:03:48.339Z,95.59
2019-06-15T01:04:48.326Z,95.59
2019-06-15T01:05:48.319Z,95.64
2019-06-15T01:06:48.304Z,95.43
2019-06-15T01:07:48.311Z,95.49
2019-06-15T01:08:48.281Z,95.53
2019-06-15T01:09:48.272Z,95.59
2019-06-15T01:10:48.260Z,95.64
2019-06-15T01:11:48.248Z,95.23
2019-06-15T01:12:48.254Z,94.02
2019-06-15T01:13:48.222Z,92.41
2019-06-15T01:14:48.211Z,91.51
2019-06-15T01:15:48.205Z,91.55
2019-06-15T01:16:48.189Z,91.46
2019-06-15T01:17:48.201Z,91.75
2019-06-15T01:18:48.170Z,91.51
2019-06-15T01:19:48.156Z,91.86
2019-06-15T01:20:48.142Z,92.66
2019-06-15T01:21:48.164Z,92.92
2019-06-15T01:22:48.145Z,93.52
2019-06-15T01:23:48.108Z,93.42
2019-06-15T01:24:48.098Z,93.52
2019-06-15T01:25:48.094Z,94.23
2019-06-15T01:26:48.077Z,94.33
2019-06-15T01:27:48.061Z,94.33
2019-06-15T01:28:48.067Z,94.17
2019-06-15T01:29:48.040Z,93.73
2019-06-15T01:30:48.027Z,94.07
2019-06-15T01:31:48.015Z,94.23
2019-06-15T01:32:48.006Z,93.87
2019-06-15T01:33:48.009Z,93.77
2019-06-15T01:34:47.981Z,93.87
2019-06-15T01:35:47.968Z,94.07
2019-06-15T01:36:47.960Z,94.27
2019-06-15T01:37:47.944Z,94.37
2019-06-15T01:38:47.953Z,93.57
2019-06-15T01:39:47.927Z,94.12
2019-06-15T01:40:47.910Z,94.12
2019-06-15T01:41:47.898Z,94.07
2019-06-15T01:42:47.921Z,94.47
2019-06-15T01:43:47.893Z,94.67
2019-06-15T01:44:47.867Z,95.07
2019-06-15T01:45:47.855Z,95.18
2019-06-15T01:46:47.841Z,95.07
2019-06-15T01:47:47.831Z,95.38
2019-06-15T01:48:47.838Z,95.28
2019-06-15T01:49:47.803Z,94.98
2019-06-15T01:50:47.794Z,95.38
2019-06-15T01:51:47.782Z,95.58
2019-06-15T01:52:47.774Z,95.38
2019-06-15T01:53:47.759Z,95.78
2019-06-15T01:54:47.766Z,95.18
2019-06-15T01:55:47.735Z,95.28
2019-06-15T01:56:47.725Z,95.42
2019-06-15T01:57:47.712Z,94.82
2019-06-15T01:58:47.700Z,94.72
2019-06-15T01:59:47.711Z,95.32
2019-06-15T02:00:47.677Z,94.92
2019-06-15T02:01:47.663Z,95.32
2019-06-15T02:02:47.651Z,95.32
2019-06-15T02:03:47.641Z,95.53
2019-06-15T02:04:47.652Z,94.92
2019-06-15T02:05:47.619Z,95.32
2019-06-15T02:06:47.607Z,95.02
2019-06-15T02:07:47.595Z,95.62
2019-06-15T02:08:47.609Z,95.42
2019-06-15T02:09:47.593Z,95.73
2019-06-15T02:10:47.559Z,95.73
2019-06-15T02:11:47.555Z,95.53
2019-06-15T02:12:47.536Z,95.62
2019-06-15T02:13:47.527Z,95.77
2019-06-15T02:14:47.512Z,95.93
2019-06-15T02:15:47.525Z,94.82
2019-06-15T02:16:47.490Z,95.07
2019-06-15T02:17:47.477Z,95.27
2019-06-15T02:18:47.468Z,95.77
2019-06-15T02:19:47.464Z,95.07
2019-06-15T02:20:47.465Z,94.96
2019-06-15T02:21:47.430Z,94.87
2019-06-15T02:22:47.421Z,95.47
2019-06-15T02:23:47.410Z,95.07
2019-06-15T02:24:47.397Z,95.07
2019-06-15T02:25:47.405Z,95.27
2019-06-15T02:26:47.374Z,95.61
2019-06-15T02:27:47.363Z,94.96
2019-06-15T02:28:47.354Z,95.17
2019-06-15T02:29:47.341Z,94.96
2019-06-15T02:30:47.348Z,95.01
2019-06-15T02:31:47.317Z,95.31
2019-06-15T02:32:47.306Z,95.17
2019-06-15T02:33:47.294Z,95.31
2019-06-15T02:34:47.280Z,95.37
2019-06-15T02:35:47.288Z,95.17
2019-06-15T02:36:47.260Z,94.76
2019-06-15T02:37:47.249Z,95.17
2019-06-15T02:38:47.239Z,94.87
2019-06-15T02:39:47.222Z,95.07
2019-06-15T02:40:47.227Z,95.27
2019-06-15T02:41:47.200Z,95.17
2019-06-15T02:42:47.185Z,95.17
2019-06-15T02:43:47.175Z,95.37
2019-06-15T02:44:47.184Z,94.96
2019-06-15T02:45:47.174Z,94.96
2019-06-15T02:46:47.143Z,94.76
2019-06-15T02:47:47.128Z,95.37
2019-06-15T02:48:47.118Z,94.96
2019-06-15T02:49:47.109Z,94.96
2019-06-15T02:50:47.114Z,95.67
2019-06-15T02:51:47.086Z,95.67
2019-06-15T02:52:47.074Z,95.07
2019-06-15T02:53:47.059Z,94.96
2019-06-15T02:54:47.047Z,95.27
2019-06-15T02:55:50.475Z,94.96
2019-06-15T02:56:47.023Z,95.51
2019-06-15T02:57:47.015Z,94.67
2019-06-15T02:58:47.002Z,95.27
2019-06-15T02:59:46.991Z,95.37
2019-06-15T03:00:46.999Z,95.67
2019-06-15T03:01:46.969Z,95.81
2019-06-15T03:02:46.957Z,95.37
2019-06-15T03:03:46.944Z,95.67
2019-06-15T03:04:46.933Z,95.77
2019-06-15T03:05:46.978Z,96.08
2019-06-15T03:06:46.908Z,95.87
2019-06-15T03:07:46.897Z,96.28
2019-06-15T03:08:46.888Z,96.37
2019-06-15T03:09:46.874Z,95.97
2019-06-15T03:10:46.894Z,95.97
2019-06-15T03:11:46.854Z,96.12
2019-06-15T03:12:46.862Z,95.97
2019-06-15T03:13:46.830Z,96.17
2019-06-15T03:14:46.818Z,95.67
2019-06-15T03:15:46.806Z,95.87
2019-06-15T03:16:46.814Z,96.37
2019-06-15T03:17:46.784Z,95.77
2019-06-15T03:18:46.773Z,96.28
2019-06-15T03:19:46.759Z,96.28
2019-06-15T03:20:46.765Z,96.58
2019-06-15T03:21:46.738Z,96.68
2019-06-15T03:22:46.727Z,97.08
2019-06-15T03:23:46.713Z,96.98
2019-06-15T03:24:46.700Z,96.78
2019-06-15T03:25:46.711Z,96.68
2019-06-15T03:26:46.764Z,96.48
2019-06-15T03:27:46.668Z,96.28
2019-06-15T03:28:46.659Z,96.78
2019-06-15T03:29:46.644Z,96.98
2019-06-15T03:30:46.654Z,96.62
2019-06-15T03:31:46.623Z,96.68
2019-06-15T03:32:46.609Z,96.78
2019-06-15T03:33:46.604Z,96.88
2019-06-15T03:34:46.589Z,96.68
2019-06-15T03:35:46.578Z,97.08
2019-06-15T03:36:46.584Z,96.37
2019-06-15T03:37:46.557Z,96.98
2019-06-15T03:38:46.539Z,97.08
2019-06-15T03:39:46.530Z,97.58
2019-06-15T03:40:46.518Z,97.58
2019-06-15T03:41:46.528Z,97.38
2019-06-15T03:42:46.494Z,97.28
2019-06-15T03:43:46.483Z,97.58
2019-06-15T03:44:46.475Z,97.33
2019-06-15T03:45:46.458Z,97.33
2019-06-15T03:46:46.466Z,97.03
2019-06-15T03:47:46.439Z,96.93
2019-06-15T03:48:46.427Z,97.28
2019-06-15T03:49:46.414Z,97.24
2019-06-15T03:50:46.408Z,96.58
2019-06-15T03:51:46.418Z,96.88
2019-06-15T03:52:46.380Z,96.78
2019-06-15T03:53:46.367Z,96.73
2019-06-15T03:54:46.354Z,96.33
2019-06-15T03:55:46.344Z,96.73
2019-06-15T03:56:46.352Z,96.83
2019-06-15T03:57:46.321Z,96.58
2019-06-15T03:58:46.308Z,96.63
2019-06-15T03:59:46.300Z,96.73
2019-06-15T04:00:46.288Z,96.83
2019-06-15T04:01:46.297Z,96.73
2019-06-15T04:02:46.263Z,96.33
2019-06-15T04:03:46.251Z,96.53
2019-06-15T04:04:46.273Z,96.53
2019-06-15T04:05:46.229Z,97.03
2019-06-15T04:06:46.218Z,96.53
2019-06-15T04:07:46.225Z,96.33
2019-06-15T04:08:46.196Z,96.23
2019-06-15T04:09:46.184Z,95.83
2019-06-15T04:10:46.170Z,95.93
2019-06-15T04:11:46.158Z,95.32
2019-06-15T04:12:46.170Z,95.62
2019-06-15T04:13:46.136Z,95.73
2019-06-15T04:14:46.125Z,95.83
2019-06-15T04:15:46.113Z,95.58
2019-06-15T04:16:46.098Z,95.38
2019-06-15T04:17:46.105Z,95.78
2019-06-15T04:18:46.076Z,95.58
2019-06-15T04:19:46.063Z,95.78
2019-06-15T04:20:46.053Z,95.33
2019-06-15T04:21:46.043Z,95.73
2019-06-15T04:22:46.048Z,95.33
2019-06-15T04:23:46.015Z,94.53
2019-06-15T04:24:46.006Z,94.83
2019-06-15T04:25:45.991Z,95.18
2019-06-15T04:26:45.980Z,94.98
2019-06-15T04:27:46.006Z,94.98
2019-06-15T04:28:45.958Z,94.98
2019-06-15T04:29:45.943Z,94.89
2019-06-15T04:30:45.934Z,94.73
2019-06-15T04:31:45.919Z,94.28
2019-06-15T04:32:45.932Z,93.68
2019-06-15T04:33:45.897Z,92.97
2019-06-15T04:34:45.884Z,92.77
2019-06-15T04:35:45.873Z,92.32
2019-06-15T04:36:45.859Z,92.52
2019-06-15T04:37:45.850Z,92.92
2019-06-15T04:38:45.858Z,93.42
2019-06-15T04:39:45.830Z,93.32
2019-06-15T04:40:45.824Z,92.76
2019-06-15T04:41:52.837Z,92.76
2019-06-15T04:42:45.790Z,93.46
2019-06-15T04:43:45.795Z,93.16
2019-06-15T04:44:45.768Z,92.96
2019-06-15T04:45:45.753Z,93.37
2019-06-15T04:46:45.742Z,93.57
2019-06-15T04:47:45.733Z,93.07
2019-06-15T04:48:45.739Z,93.27
2019-06-15T04:49:45.711Z,94.12
2019-06-15T04:50:45.699Z,93.77
2019-06-15T04:51:45.684Z,93.87
2019-06-15T04:52:45.670Z,94.07
2019-06-15T04:53:45.679Z,94.07
2019-06-15T04:54:45.650Z,93.97
2019-06-15T04:55:45.635Z,94.27
2019-06-15T04:56:50.973Z,93.93
2019-06-15T04:57:46.610Z,94.23
2019-06-15T04:58:45.618Z,94.33
2019-06-15T04:59:45.587Z,94.33
2019-06-15T05:00:45.576Z,94.13
2019-06-15T05:01:45.562Z,93.93
2019-06-15T05:02:45.549Z,93.82
2019-06-15T05:03:45.559Z,94.13
2019-06-15T05:04:45.528Z,94.18
2019-06-15T05:05:45.513Z,93.98
2019-06-15T05:06:45.505Z,93.88
2019-06-15T05:07:45.492Z,93.68
2019-06-15T05:08:45.499Z,93.78
2019-06-15T05:09:45.468Z,93.48
2019-06-15T05:10:45.457Z,93.48
2019-06-15T05:11:45.445Z,92.27
2019-06-15T05:12:45.446Z,91.87
2019-06-15T05:13:45.441Z,90.86
2019-06-15T05:14:45.409Z,91.22
2019-06-15T05:15:45.397Z,91.37
2019-06-15T05:16:45.386Z,91.52
2019-06-15T05:17:46.326Z,91.83
2019-06-15T05:18:45.378Z,92.43
2019-06-15T05:19:45.360Z,91.78
2019-06-15T05:20:45.346Z,92.08
2019-06-15T05:21:45.338Z,90.78
2019-06-15T05:22:45.319Z,90.37
2019-06-15T05:23:45.332Z,90.98
2019-06-15T05:24:45.291Z,90.88
2019-06-15T05:25:45.288Z,90.68
2019-06-15T05:26:45.296Z,89.07
2019-06-15T05:27:45.261Z,88.97
2019-06-15T05:28:45.266Z,89.07
2019-06-15T05:29:45.234Z,88.87
2019-06-15T05:30:45.225Z,89.07
2019-06-15T05:31:45.218Z,89.17
2019-06-15T05:32:45.201Z,89.07
2019-06-15T05:33:45.213Z,87.52
2019-06-15T05:34:45.186Z,87.66
2019-06-15T05:35:45.169Z,87.73
2019-06-15T05:36:45.155Z,87.93
2019-06-15T05:37:45.147Z,88.93
2019-06-15T05:38:45.133Z,87.93
2019-06-15T05:39:45.135Z,87.58
2019-06-15T05:40:45.109Z,87.22
2019-06-15T05:41:45.097Z,86.88
2019-06-15T05:42:45.083Z,86.38
2019-06-15T05:43:45.078Z,85.88
2019-06-15T05:44:45.080Z,85.68
2019-06-15T05:45:45.050Z,85.13
2019-06-15T05:46:45.045Z,85.33
2019-06-15T05:47:45.035Z,85.03
2019-06-15T05:48:45.014Z,85.13
2019-06-15T05:49:45.021Z,85.03
2019-06-15T05:50:44.991Z,84.83
2019-06-15T05:51:44.983Z,85.24
2019-06-15T05:52:44.971Z,84.63
2019-06-15T05:53:44.957Z,83.93
2019-06-15T05:54:44.964Z,85.24
2019-06-15T05:55:44.934Z,83.43
2019-06-15T05:56:44.923Z,84.43
2019-06-15T05:57:44.911Z,84.63
2019-06-15T05:58:44.902Z,83.57
2019-06-15T05:59:44.916Z,84.27
2019-06-15T06:00:44.876Z,84.97
2019-06-15T06:01:44.865Z,84.88
2019-06-15T06:02:44.853Z,84.57
2019-06-15T06:03:44.843Z,84.37
2019-06-15T06:04:44.829Z,83.87
2019-06-15T06:05:44.866Z,85.17
2019-06-15T06:06:44.807Z,84.47
2019-06-15T06:07:44.799Z,83.87
2019-06-15T06:08:44.783Z,84.17
2019-06-15T06:09:44.776Z,85.08
2019-06-15T06:10:44.826Z,84.27
2019-06-15T06:11:44.758Z,85.22
2019-06-15T06:12:44.764Z,84.41
2019-06-15T06:13:44.749Z,85.11
2019-06-15T06:14:44.717Z,85.22
2019-06-15T06:15:44.722Z,84.91
2019-06-15T06:16:44.690Z,85.92
2019-06-15T06:17:44.686Z,85.61
2019-06-15T06:18:44.674Z,85.72
2019-06-15T06:19:44.662Z,85.72
2019-06-15T06:20:44.669Z,85.92
2019-06-15T06:21:44.635Z,84.75
2019-06-15T06:22:44.623Z,85.11
2019-06-15T06:23:44.612Z,85.56
2019-06-15T06:24:44.597Z,86.16
2019-06-15T06:25:44.606Z,85.72
2019-06-15T06:26:44.576Z,85.31
2019-06-15T06:27:44.564Z,85.16
2019-06-15T06:28:56.541Z,85.22
2019-06-15T06:29:45.537Z,85.36
2019-06-15T06:30:44.546Z,84.15
2019-06-15T06:31:44.515Z,84.51
2019-06-15T06:32:44.507Z,84.95
2019-06-15T06:33:44.495Z,85.31
2019-06-15T06:34:44.492Z,84.85
2019-06-15T06:35:44.487Z,85.05
2019-06-15T06:36:44.460Z,85.16
2019-06-15T06:37:44.447Z,85.16
2019-06-15T06:38:44.433Z,85.90
2019-06-15T06:39:44.420Z,86.10
2019-06-15T06:40:44.436Z,85.80
2019-06-15T06:41:44.398Z,86.10
2019-06-15T06:42:44.384Z,86.14
2019-06-15T06:43:44.374Z,85.90
2019-06-15T06:44:44.363Z,86.20
2019-06-15T06:45:44.349Z,85.50
2019-06-15T06:46:44.355Z,84.39
2019-06-15T06:47:44.336Z,84.65
2019-06-15T06:48:44.318Z,84.55
2019-06-15T06:49:44.305Z,84.75
2019-06-15T06:50:44.310Z,84.45
2019-06-15T06:51:44.280Z,84.80
2019-06-15T06:52:44.270Z,84.89
2019-06-15T06:53:44.258Z,84.99
2019-06-15T06:54:44.243Z,84.94
2019-06-15T06:55:44.263Z,85.84
2019-06-15T06:56:44.220Z,85.53
2019-06-15T06:57:53.282Z,86.14
2019-06-15T06:58:45.196Z,85.24
2019-06-15T06:59:44.185Z,85.94
2019-06-15T07:00:44.173Z,85.50
2019-06-15T07:01:44.178Z,85.33
2019-06-15T07:02:44.147Z,85.33
2019-06-15T07:03:44.142Z,85.24
2019-06-15T07:04:44.124Z,86.00
2019-06-15T07:05:44.111Z,86.00
2019-06-15T07:06:44.120Z,85.50
2019-06-15T07:07:44.144Z,85.10
2019-06-15T07:08:44.078Z,85.33
2019-06-15T07:09:44.069Z,84.83
2019-06-15T07:10:44.053Z,84.63
2019-06-15T07:11:44.090Z,84.74
2019-06-15T07:12:44.030Z,85.03
2019-06-15T07:13:44.019Z,84.63
2019-06-15T07:14:44.007Z,84.94
2019-06-15T07:15:43.997Z,85.94
2019-06-15T07:16:44.041Z,86.08
2019-06-15T07:17:43.973Z,85.78
2019-06-15T07:18:43.967Z,86.38
2019-06-15T07:19:43.948Z,87.08
2019-06-15T07:20:43.933Z,86.18
2019-06-15T07:21:43.948Z,86.99
2019-06-15T07:22:43.912Z,87.59
2019-06-15T07:23:43.901Z,87.19
2019-06-15T07:24:43.885Z,87.79
2019-06-15T07:25:43.876Z,87.55
2019-06-15T07:26:43.864Z,87.49
2019-06-15T07:27:43.869Z,87.75
2019-06-15T07:28:43.842Z,88.05
2019-06-15T07:29:43.827Z,88.45
2019-06-15T07:30:43.815Z,87.95
2019-06-15T07:31:43.803Z,87.75
2019-06-15T07:32:43.823Z,88.05
2019-06-15T07:33:43.781Z,87.65
2019-06-15T07:34:43.768Z,87.95
2019-06-15T07:35:43.755Z,87.85
2019-06-15T07:36:43.744Z,88.09
2019-06-15T07:37:43.759Z,88.49
2019-06-15T07:38:43.769Z,87.59
2019-06-15T07:39:43.719Z,87.85
2019-06-15T07:40:43.699Z,87.89
2019-06-15T07:41:43.684Z,88.49
2019-06-15T07:42:43.697Z,88.39
2019-06-15T07:43:43.666Z,88.79
2019-06-15T07:44:43.649Z,88.95
2019-06-15T07:45:43.645Z,88.79
2019-06-15T07:46:43.648Z,87.69
2019-06-15T07:47:43.636Z,87.69
2019-06-15T07:48:43.604Z,88.49
2019-06-15T07:49:43.599Z,88.54
2019-06-15T07:50:43.582Z,89.10
2019-06-15T07:51:43.570Z,89.24
2019-06-15T07:52:43.576Z,88.34
2019-06-15T07:53:43.546Z,88.94
2019-06-15T07:54:43.534Z,89.44
2019-06-15T07:55:43.516Z,89.84
2019-06-15T07:56:43.507Z,90.11
2019-06-15T07:57:43.514Z,89.80
2019-06-15T07:58:43.483Z,89.00
2019-06-15T07:59:43.477Z,88.65
2019-06-15T08:00:43.462Z,87.60
2019-06-15T08:01:43.448Z,87.26
2019-06-15T08:02:43.480Z,84.97
2019-06-15T08:03:43.546Z,82.65
2019-06-15T08:04:43.410Z,82.41
2019-06-15T08:05:43.416Z,81.21
2019-06-15T08:06:43.389Z,79.67
2019-06-15T08:07:43.381Z,78.45
2019-06-15T08:08:43.385Z,79.55
2019-06-15T08:09:43.354Z,77.22
2019-06-15T08:10:43.340Z,75.28
2019-06-15T08:11:45.809Z,72.52
2019-06-15T08:12:43.323Z,75.01
2019-06-15T08:13:43.357Z,72.41
2019-06-15T08:14:43.323Z,68.53
2019-06-15T08:15:43.287Z,68.76
2019-06-15T08:16:43.273Z,67.63
2019-06-15T08:17:45.555Z,67.44
2019-06-15T08:18:43.272Z,68.83
2019-06-15T08:19:43.236Z,69.09
2019-06-15T08:20:43.231Z,68.96
2019-06-15T08:21:43.214Z,66.97
2019-06-15T08:22:43.210Z,68.83
2019-06-15T08:23:43.213Z,65.29
2019-06-15T08:24:43.189Z,62.92
2019-06-15T08:25:43.174Z,60.79
2019-06-15T08:26:43.171Z,56.51
2019-06-15T08:27:43.153Z,56.21
2019-06-15T08:28:43.163Z,57.84
2019-06-15T08:29:43.127Z,54.40
2019-06-15T08:30:43.121Z,53.91
2019-06-15T08:31:43.105Z,53.81
2019-06-15T08:32:43.092Z,52.33
2019-06-15T08:33:43.101Z,48.89
2019-06-15T08:34:43.075Z,50.51
2019-06-15T08:35:43.062Z,46.13
2019-06-15T08:36:43.065Z,45.76
2019-06-15T08:37:43.041Z,48.92
2019-06-15T08:38:43.059Z,47.08
2019-06-15T08:39:43.023Z,49.58
2019-06-15T08:40:43.006Z,47.67
2019-06-15T08:41:42.997Z,45.30
2019-06-15T08:42:42.988Z,46.47
2019-06-15T08:43:42.978Z,45.16
2019-06-15T08:44:42.988Z,42.40
2019-06-15T08:45:42.956Z,44.16
2019-06-15T08:46:42.954Z,41.99
2019-06-15T08:47:42.939Z,43.17
2019-06-15T08:48:42.925Z,47.79
2019-06-15T08:49:42.935Z,49.97
2019-06-15T08:50:42.903Z,48.42
2019-06-15T08:51:42.897Z,50.49
2019-06-15T08:52:42.884Z,53.91
2019-06-15T08:53:42.906Z,50.32
2019-06-15T08:54:42.886Z,51.84
2019-06-15T08:55:42.858Z,46.76
2019-06-15T08:56:42.853Z,47.79
2019-06-15T08:57:42.829Z,50.14
2019-06-15T08:58:54.793Z,47.49
2019-06-15T08:59:43.829Z,46.53
2019-06-15T09:00:42.811Z,51.25
2019-06-15T09:01:42.790Z,51.79
2019-06-15T09:02:42.784Z,50.90
2019-06-15T09:03:42.778Z,55.68
2019-06-15T09:04:42.772Z,57.93
2019-06-15T09:05:42.744Z,57.40
2019-06-15T09:06:42.732Z,58.51
2019-06-15T09:07:42.723Z,61.35
2019-06-15T09:08:42.712Z,60.26
2019-06-15T09:09:42.773Z,61.41
2019-06-15T09:10:42.697Z,61.38
2019-06-15T09:11:42.679Z,62.40
2019-06-15T09:12:42.666Z,62.90
2019-06-15T09:13:42.657Z,62.63
2019-06-15T09:14:42.660Z,63.26
2019-06-15T09:15:42.630Z,64.81
2019-06-15T09:16:42.619Z,65.24
2019-06-15T09:17:42.615Z,66.74
2019-06-15T09:18:42.670Z,65.67
2019-06-15T09:19:42.612Z,66.67
2019-06-15T09:20:42.583Z,67.10
2019-06-15T09:21:42.566Z,66.96
2019-06-15T09:22:42.551Z,68.66
2019-06-15T09:23:42.539Z,68.76
2019-06-15T09:24:42.564Z,68.66
2019-06-15T09:25:42.515Z,68.76
2019-06-15T09:26:42.506Z,67.07
2019-06-15T09:27:42.493Z,68.40
2019-06-15T09:28:42.483Z,68.52
2019-06-15T09:29:42.485Z,68.63
2019-06-15T09:30:42.463Z,69.23
2019-06-15T09:31:42.449Z,70.06
2019-06-15T09:32:42.547Z,70.16
2019-06-15T09:33:42.426Z,70.29
2019-06-15T09:34:42.429Z,70.69
2019-06-15T09:35:42.405Z,70.32
2019-06-15T09:36:42.392Z,72.06
2019-06-15T09:37:42.378Z,72.06
2019-06-15T09:38:42.366Z,71.86
2019-06-15T09:39:42.373Z,72.06
2019-06-15T09:40:42.382Z,72.16
2019-06-15T09:41:42.340Z,72.16
2019-06-15T09:42:42.322Z,72.30
2019-06-15T09:43:42.312Z,72.39
2019-06-15T09:44:42.335Z,72.39
2019-06-15T09:45:42.286Z,72.09
2019-06-15T09:46:42.299Z,72.00
2019-06-15T09:47:42.258Z,73.10
2019-06-15T09:48:42.251Z,73.80
2019-06-15T09:49:42.237Z,73.90
2019-06-15T09:50:42.241Z,72.69
2019-06-15T09:51:42.221Z,73.06
2019-06-15T09:52:42.197Z,71.26
2019-06-15T09:53:42.187Z,72.03
2019-06-15T09:54:42.178Z,71.03
2019-06-15T09:55:42.182Z,70.62
2019-06-15T09:56:42.158Z,70.79
2019-06-15T09:57:42.146Z,70.09
2019-06-15T09:58:42.127Z,70.29
2019-06-15T09:59:42.115Z,70.23
2019-06-15T10:00:42.124Z,70.43
2019-06-15T10:01:42.092Z,70.29
2019-06-15T10:02:42.081Z,69.06
2019-06-15T10:03:42.071Z,68.63
2019-06-15T10:04:42.060Z,67.86
2019-06-15T10:05:42.065Z,68.46
2019-06-15T10:06:42.034Z,67.07
2019-06-15T10:07:42.030Z,66.77
2019-06-15T10:08:42.016Z,66.47
2019-06-15T10:09:42.001Z,67.07
2019-06-15T10:10:42.006Z,67.86
2019-06-15T10:11:41.981Z,67.86
2019-06-15T10:12:41.967Z,66.73
2019-06-15T10:13:41.952Z,66.30
2019-06-15T10:14:41.941Z,65.70
2019-06-15T10:15:41.951Z,65.47
2019-06-15T10:16:41.918Z,65.54
2019-06-15T10:17:41.907Z,65.47
2019-06-15T10:18:41.896Z,64.94
2019-06-15T10:19:41.887Z,65.50
2019-06-15T10:20:41.894Z,67.23
2019-06-15T10:21:41.861Z,67.96
2019-06-15T10:22:41.848Z,68.36
2019-06-15T10:23:41.840Z,68.86
2019-06-15T10:24:41.825Z,68.53
2019-06-15T10:25:41.838Z,67.83
2019-06-15T10:26:41.805Z,67.83
2019-06-15T10:27:41.793Z,67.10
2019-06-15T10:28:41.781Z,66.67
2019-06-15T10:29:42.496Z,65.77
2019-06-15T10:30:41.756Z,65.80
2019-06-15T10:31:41.759Z,66.83
2019-06-15T10:32:41.740Z,67.36
2019-06-15T10:33:41.825Z,66.93
2019-06-15T10:34:41.713Z,66.77
2019-06-15T10:35:41.698Z,66.57
2019-06-15T10:36:41.702Z,65.67
2019-06-15T10:37:41.674Z,65.80
2019-06-15T10:38:41.661Z,66.43
2019-06-15T10:39:41.655Z,66.03
2019-06-15T10:40:41.655Z,66.27
2019-06-15T10:41:41.625Z,66.36
2019-06-15T10:42:48.681Z,68.06
2019-06-15T10:43:41.609Z,67.16
2019-06-15T10:44:41.592Z,67.40
2019-06-15T10:45:41.580Z,65.24
2019-06-15T10:46:41.586Z,62.52
2019-06-15T10:47:41.559Z,62.49
2019-06-15T10:48:41.548Z,61.77
2019-06-15T10:49:41.532Z,63.06
2019-06-15T10:50:41.522Z,61.37
2019-06-15T10:51:41.531Z,63.45
2019-06-15T10:52:41.505Z,62.82
2019-06-15T10:53:41.509Z,62.75
2019-06-15T10:54:41.480Z,64.07
2019-06-15T10:55:41.468Z,64.67
2019-06-15T10:56:41.473Z,64.67
2019-06-15T10:57:41.444Z,65.20
2019-06-15T10:58:41.444Z,64.67
2019-06-15T10:59:53.715Z,65.37
2019-06-15T11:00:42.409Z,64.31
2019-06-15T11:01:41.489Z,64.67
2019-06-15T11:02:41.386Z,65.57
2019-06-15T11:03:41.376Z,64.58
2019-06-15T11:04:41.365Z,59.39
2019-06-15T11:05:41.353Z,56.60
2019-06-15T11:06:41.361Z,56.45
2019-06-15T11:07:41.332Z,54.27
2019-06-15T11:08:41.319Z,54.79
2019-06-15T11:09:41.316Z,54.32
2019-06-15T11:10:41.312Z,55.28
2019-06-15T11:11:41.301Z,53.13
2019-06-15T11:12:46.173Z,55.58
2019-06-15T11:13:42.266Z,56.83
2019-06-15T11:14:41.254Z,58.74
2019-06-15T11:15:41.241Z,59.17
2019-06-15T11:16:41.327Z,57.78
2019-06-15T11:17:41.221Z,58.83
2019-06-15T11:18:41.211Z,59.45
2019-06-15T11:19:41.198Z,58.60
2019-06-15T11:20:41.188Z,57.29
2019-06-15T11:21:41.225Z,56.38
2019-06-15T11:22:41.168Z,56.13
2019-06-15T11:23:41.154Z,53.97
2019-06-15T11:24:41.350Z,55.44
2019-06-15T11:25:41.133Z,53.08
2019-06-15T11:26:42.039Z,52.19
2019-06-15T11:27:41.125Z,50.53
2019-06-15T11:28:41.104Z,51.07
2019-06-15T11:29:41.088Z,52.12
2019-06-15T11:30:41.075Z,50.58
2019-06-15T11:31:41.071Z,50.51
2019-06-15T11:32:41.071Z,49.92
2019-06-15T11:33:41.041Z,49.92
2019-06-15T11:34:41.029Z,50.98
2019-06-15T11:35:41.016Z,50.95
2019-06-15T11:36:41.023Z,51.37
2019-06-15T11:37:41.018Z,52.69
2019-06-15T11:38:40.984Z,51.05
2019-06-15T11:39:40.977Z,50.93
2019-06-15T11:40:40.966Z,48.31
2019-06-15T11:41:40.952Z,47.89
2019-06-15T11:42:40.963Z,45.65
2019-06-15T11:43:40.930Z,45.67
2019-06-15T11:44:40.919Z,47.72
2019-06-15T11:45:40.909Z,48.77
2019-06-15T11:46:40.903Z,48.38
2019-06-15T11:47:40.884Z,48.31
2019-06-15T11:48:40.901Z,47.03
2019-06-15T11:49:40.877Z,48.16
2019-06-15T11:50:40.854Z,47.05
2019-06-15T11:51:40.845Z,45.68
2019-06-15T11:52:40.835Z,45.62
2019-06-15T11:53:40.847Z,44.62
2019-06-15T11:54:40.812Z,43.60
2019-06-15T11:55:40.796Z,42.14
2019-06-15T11:56:40.791Z,44.20
2019-06-15T11:57:40.776Z,44.71
2019-06-15T11:58:40.788Z,46.19
2019-06-15T11:59:40.768Z,45.24
2019-06-15T12:00:40.749Z,44.18
2019-06-15T12:01:40.732Z,45.01
2019-06-15T12:02:40.722Z,44.84
2019-06-15T12:03:40.733Z,44.60
2019-06-15T12:04:40.701Z,43.52
2019-06-15T12:05:40.690Z,44.96
2019-06-15T12:06:40.677Z,45.38
2019-06-15T12:07:40.670Z,46.73
2019-06-15T12:08:40.674Z,48.88
2019-06-15T12:09:40.644Z,45.04
2019-06-15T12:10:40.637Z,44.19
2019-06-15T12:11:40.631Z,44.17
2019-06-15T12:12:40.613Z,45.02
2019-06-15T12:13:40.642Z,45.16
2019-06-15T12:14:40.591Z,46.76
2019-06-15T12:15:40.582Z,46.86
2019-06-15T12:16:40.568Z,45.67
2019-06-15T12:17:40.558Z,45.75
2019-06-15T12:18:40.549Z,44.70
2019-06-15T12:19:40.558Z,44.29
2019-06-15T12:20:40.525Z,43.99
2019-06-15T12:21:40.516Z,43.40
2019-06-15T12:22:40.504Z,42.99
2019-06-15T12:23:40.497Z,44.31
2019-06-15T12:24:40.499Z,43.40
2019-06-15T12:25:40.470Z,41.88
2019-06-15T12:26:40.465Z,41.24
2019-06-15T12:27:40.450Z,40.06
2019-06-15T12:28:40.440Z,42.10
2019-06-15T12:29:40.465Z,42.26
2019-06-15T12:30:47.187Z,44.69
2019-06-15T12:31:41.406Z,45.32
2019-06-15T12:32:40.446Z,47.15
2019-06-15T12:33:40.388Z,46.06
2019-06-15T12:34:40.393Z,47.86
2019-06-15T12:35:40.363Z,47.99
2019-06-15T12:36:40.352Z,48.90
2019-06-15T12:37:40.340Z,46.85
2019-06-15T12:38:40.330Z,45.87
2019-06-15T12:39:42.043Z,44.11
2019-06-15T12:40:40.307Z,44.09
2019-06-15T12:41:40.299Z,43.71
2019-06-15T12:42:40.288Z,43.74
2019-06-15T12:43:40.272Z,43.93
2019-06-15T12:44:40.286Z,44.03
2019-06-15T12:45:40.253Z,44.67
2019-06-15T12:46:40.243Z,45.89
2019-06-15T12:47:40.234Z,47.22
2019-06-15T12:48:40.216Z,47.42
2019-06-15T12:49:40.225Z,48.41
2019-06-15T12:50:40.198Z,47.15
2019-06-15T12:51:40.943Z,45.89
2019-06-15T12:52:40.179Z,45.79
2019-06-15T12:53:40.164Z,45.65
2019-06-15T12:54:40.167Z,44.15
2019-06-15T12:55:40.143Z,45.61
2019-06-15T12:56:40.128Z,44.15
2019-06-15T12:57:40.119Z,42.43